Time;durP1;ratioP1;P1;durP2;ratioP2;P2;SDS_P1;SDS_P2;PMS_P1;PMS_P2;Temp;Humidity;BMP_temperature;BMP_pressure;BME280_temperature;BME280_humidity;BME280_pressure;Samples;Min_cycle;Max_cycle;Signal;HPM_P1;HPM_P2
2021/12/22 00:01:36;;;;;;;18.42;7.97;;;0.40;99.90;;;;;;4999620;28;20039;-88
2021/12/22 00:04:02;;;;;;;16.73;7.45;;;0.40;99.90;;;;;;4982724;28;20115;-86
2021/12/22 00:06:32;;;;;;;15.85;7.40;;;0.40;99.90;;;;;;4995068;28;20027;-86
2021/12/22 00:08:59;;;;;;;20.60;7.43;;;0.40;99.90;;;;;;4980782;28;20039;-89
2021/12/22 00:11:26;;;;;;;17.67;7.78;;;0.40;99.90;;;;;;5000477;28;20043;-89
2021/12/22 00:13:53;;;;;;;18.17;7.20;;;0.40;99.90;;;;;;4995669;28;20027;-84
2021/12/22 00:16:18;;;;;;;16.13;7.88;;;0.40;99.90;;;;;;4991757;28;20030;-86
2021/12/22 00:18:44;;;;;;;17.52;7.70;;;0.40;99.90;;;;;;4975940;28;20041;-86
2021/12/22 00:21:10;;;;;;;16.67;7.72;;;0.40;99.90;;;;;;4977090;28;20038;-86
2021/12/22 00:23:37;;;;;;;20.42;8.55;;;0.40;99.90;;;;;;4991849;28;20475;-86
2021/12/22 00:26:04;;;;;;;26.52;9.10;;;0.40;99.90;;;;;;4989507;28;20447;-86
2021/12/22 00:28:32;;;;;;;24.42;8.50;;;0.30;99.90;;;;;;4991177;28;20023;-87
2021/12/22 00:31:00;;;;;;;19.10;8.48;;;0.30;99.90;;;;;;4991710;28;20090;-87
2021/12/22 00:33:32;;;;;;;19.55;8.55;;;0.30;99.90;;;;;;4991206;28;20499;-86
2021/12/22 00:35:58;;;;;;;20.05;9.20;;;0.20;99.90;;;;;;4975407;28;20043;-87
2021/12/22 00:38:23;;;;;;;21.65;8.00;;;0.20;99.90;;;;;;4978597;28;20039;-86
2021/12/22 00:40:50;;;;;;;18.42;8.48;;;0.10;99.90;;;;;;4995983;28;20069;-87
2021/12/22 00:43:17;;;;;;;20.50;8.25;;;0.10;99.90;;;;;;4988828;28;20023;-86
2021/12/22 00:45:43;;;;;;;18.60;6.95;;;0.00;99.90;;;;;;4990514;28;20050;-87
2021/12/22 00:48:10;;;;;;;18.25;7.60;;;0.00;99.90;;;;;;4990325;28;20027;-85
2021/12/22 00:50:38;;;;;;;18.50;8.57;;;0.00;99.90;;;;;;4989405;28;20058;-87
2021/12/22 00:53:05;;;;;;;14.23;6.68;;;0.00;99.90;;;;;;4989653;28;20041;-86
2021/12/22 00:55:31;;;;;;;16.08;7.32;;;-0.10;99.90;;;;;;4989830;28;20061;-85
2021/12/22 00:57:57;;;;;;;16.50;7.65;;;-0.10;99.90;;;;;;4994065;28;20023;-86
2021/12/22 01:00:27;;;;;;;16.88;7.45;;;-0.20;99.90;;;;;;4991880;28;20038;-87
2021/12/22 01:02:55;;;;;;;27.67;7.95;;;-0.20;99.90;;;;;;4996795;28;20070;-86
2021/12/22 01:05:22;;;;;;;18.83;7.45;;;-0.20;99.90;;;;;;4977004;28;20035;-88
2021/12/22 01:07:49;;;;;;;19.85;8.40;;;-0.20;99.90;;;;;;4989943;28;20039;-87
2021/12/22 01:10:21;;;;;;;18.60;8.73;;;-0.20;99.90;;;;;;4991170;28;20112;-86
2021/12/22 01:12:47;;;;;;;17.02;7.85;;;-0.20;99.90;;;;;;4991609;28;20049;-87
2021/12/22 01:15:13;;;;;;;18.73;7.35;;;-0.20;99.90;;;;;;4992156;28;20069;-87
2021/12/22 01:17:45;;;;;;;18.90;8.00;;;-0.10;99.90;;;;;;4988681;28;20543;-87
2021/12/22 01:20:23;;;;;;;22.15;8.15;;;-0.20;99.90;;;;;;4988801;28;20042;-86
2021/12/22 01:22:50;;;;;;;20.35;8.57;;;-0.20;99.90;;;;;;4972541;28;20034;-86
2021/12/22 01:25:21;;;;;;;23.40;8.65;;;-0.20;99.90;;;;;;4996675;28;20034;-88
2021/12/22 01:27:48;;;;;;;20.50;8.77;;;-0.10;99.90;;;;;;4977449;28;20023;-86
2021/12/22 01:30:21;;;;;;;19.52;9.13;;;-0.20;99.90;;;;;;4993144;28;20018;-88
2021/12/22 01:32:49;;;;;;;22.00;7.70;;;-0.20;99.90;;;;;;4976282;28;20026;-87
2021/12/22 01:35:17;;;;;;;27.75;9.38;;;-0.20;99.90;;;;;;4990925;28;20029;-87
2021/12/22 01:37:44;;;;;;;22.77;9.75;;;-0.20;99.90;;;;;;4993048;28;20023;-87
2021/12/22 01:40:11;;;;;;;22.30;9.90;;;-0.20;99.90;;;;;;4992124;28;20033;-85
2021/12/22 01:42:38;;;;;;;24.40;9.63;;;-0.30;99.90;;;;;;4998124;28;20392;-87
2021/12/22 01:45:26;;;;;;;26.30;10.55;;;-0.30;99.90;;;;;;4996376;28;20038;-88
2021/12/22 01:50:44;;;;;;;23.50;9.90;;;-0.50;99.90;;;;;;4986340;28;20031;-87
2021/12/22 01:55:38;;;;;;;22.67;9.93;;;-0.60;99.90;;;;;;4994952;28;20061;-83
2021/12/22 01:58:07;;;;;;;25.58;9.68;;;-0.60;99.90;;;;;;4994873;28;20057;-82
2021/12/22 02:00:33;;;;;;;20.60;10.00;;;-0.60;99.90;;;;;;4995358;28;20029;-85
2021/12/22 02:02:58;;;;;;;21.25;8.15;;;-0.60;99.90;;;;;;4999343;28;20023;-83
2021/12/22 02:05:25;;;;;;;24.25;9.63;;;-0.60;99.90;;;;;;4979417;29;20039;-82
2021/12/22 02:07:56;;;;;;;23.35;9.73;;;-0.60;99.90;;;;;;4980610;28;20007;-81
2021/12/22 02:10:39;;;;;;;16.90;8.48;;;-0.60;99.90;;;;;;4979767;28;20011;-82
2021/12/22 02:13:05;;;;;;;20.70;9.18;;;-0.60;99.90;;;;;;4978717;28;20058;-82
2021/12/22 02:15:34;;;;;;;18.75;7.70;;;-0.60;99.90;;;;;;4976732;28;20379;-84
2021/12/22 02:18:03;;;;;;;23.85;8.68;;;-0.70;99.90;;;;;;4977673;29;20035;-85
2021/12/22 02:20:29;;;;;;;18.50;8.35;;;-0.70;99.90;;;;;;4973323;28;20023;-85
2021/12/22 02:22:56;;;;;;;19.95;8.88;;;-0.70;99.90;;;;;;4973249;28;20035;-84
2021/12/22 02:25:31;;;;;;;17.13;8.40;;;-0.70;99.90;;;;;;4971372;28;20043;-84
2021/12/22 02:27:57;;;;;;;18.27;9.45;;;-0.70;99.90;;;;;;4977173;28;20039;-83
2021/12/22 02:30:26;;;;;;;24.10;8.63;;;-0.70;99.90;;;;;;4979705;29;20031;-83
2021/12/22 02:35:28;;;;;;;20.95;9.25;;;-0.80;99.90;;;;;;4980412;28;20047;-81
2021/12/22 02:37:54;;;;;;;23.10;9.43;;;-0.80;99.90;;;;;;4978782;29;20042;-83
2021/12/22 02:40:27;;;;;;;20.98;9.65;;;-0.80;99.90;;;;;;4979743;29;20007;-83
2021/12/22 02:43:03;;;;;;;20.15;9.60;;;-0.80;99.90;;;;;;4980736;28;20031;-81
2021/12/22 02:45:30;;;;;;;17.60;9.02;;;-0.80;99.90;;;;;;4975486;28;20566;-83
2021/12/22 02:47:56;;;;;;;24.45;8.38;;;-0.80;99.90;;;;;;4975194;28;20019;-82
2021/12/22 02:50:22;;;;;;;20.60;8.60;;;-0.90;99.90;;;;;;4975269;29;20043;-83
2021/12/22 02:55:17;;;;;;;22.70;9.07;;;-0.80;99.90;;;;;;4974396;28;20028;-84
2021/12/22 02:57:47;;;;;;;21.42;9.50;;;-0.80;99.90;;;;;;4973458;28;20106;-84
2021/12/22 03:00:35;;;;;;;20.98;9.52;;;-0.80;99.90;;;;;;4971596;29;20035;-83
2021/12/22 03:03:14;;;;;;;20.33;8.30;;;-0.70;99.90;;;;;;4970406;28;20114;-84
2021/12/22 03:05:40;;;;;;;22.20;8.70;;;-0.80;99.90;;;;;;4969866;28;20055;-84
2021/12/22 03:08:06;;;;;;;20.27;8.98;;;-0.80;99.90;;;;;;4969244;29;20051;-84
2021/12/22 03:10:33;;;;;;;19.55;8.93;;;-0.80;99.90;;;;;;4970553;28;20046;-84
2021/12/22 03:13:03;;;;;;;19.30;8.40;;;-0.80;99.90;;;;;;4970172;28;20057;-84
2021/12/22 03:15:30;;;;;;;26.00;8.15;;;-0.80;99.90;;;;;;4969654;29;20031;-84
2021/12/22 03:17:57;;;;;;;23.50;8.93;;;-0.90;99.90;;;;;;4953943;29;20027;-83
2021/12/22 03:20:24;;;;;;;19.90;8.98;;;-0.90;99.90;;;;;;4973484;28;20038;-84
2021/12/22 03:22:51;;;;;;;21.63;10.00;;;-0.90;99.90;;;;;;4970999;28;20020;-82
2021/12/22 03:25:17;;;;;;;22.77;9.07;;;-0.90;99.90;;;;;;4976738;28;20051;-84
2021/12/22 03:27:46;;;;;;;22.67;8.93;;;-0.90;99.90;;;;;;4968372;28;20034;-84
2021/12/22 03:30:14;;;;;;;22.02;8.65;;;-0.90;99.90;;;;;;4967657;29;20399;-83
2021/12/22 03:32:41;;;;;;;20.30;8.32;;;-0.90;99.90;;;;;;4969981;28;20038;-82
2021/12/22 03:35:08;;;;;;;17.98;8.45;;;-1.00;99.90;;;;;;4979364;28;20107;-82
2021/12/22 03:37:34;;;;;;;15.85;8.30;;;-1.00;99.90;;;;;;4977507;29;20043;-83
2021/12/22 03:40:00;;;;;;;18.90;8.93;;;-1.00;99.90;;;;;;4968257;28;20037;-83
2021/12/22 03:42:26;;;;;;;21.90;9.23;;;-1.10;99.90;;;;;;4979309;28;20023;-83
2021/12/22 03:44:52;;;;;;;19.48;8.32;;;-1.10;99.90;;;;;;4975258;28;20059;-84
2021/12/22 03:47:19;;;;;;;27.00;9.77;;;-1.20;99.90;;;;;;4966122;29;20031;-84
2021/12/22 03:49:45;;;;;;;20.58;9.23;;;-1.20;99.90;;;;;;4981320;28;20031;-82
2021/12/22 03:52:12;;;;;;;16.42;8.13;;;-1.10;99.90;;;;;;4980881;28;20031;-83
2021/12/22 03:54:37;;;;;;;18.77;8.95;;;-1.00;99.90;;;;;;4969883;28;20039;-84
2021/12/22 03:57:03;;;;;;;18.95;9.00;;;-1.00;99.90;;;;;;4980944;28;20137;-83
2021/12/22 03:59:29;;;;;;;20.20;9.77;;;-1.00;99.90;;;;;;4981036;28;20019;-83
2021/12/22 04:01:55;;;;;;;19.95;9.15;;;-1.00;99.90;;;;;;4979116;28;20034;-82
2021/12/22 04:04:21;;;;;;;18.23;8.85;;;-1.00;99.90;;;;;;4977297;28;20031;-82
2021/12/22 04:06:48;;;;;;;20.70;8.80;;;-1.00;99.90;;;;;;4979092;28;20057;-81
2021/12/22 04:09:15;;;;;;;15.68;7.80;;;-0.90;99.90;;;;;;4976762;29;20039;-82
2021/12/22 04:11:43;;;;;;;17.60;7.95;;;-0.90;99.90;;;;;;4969218;28;20023;-83
2021/12/22 04:14:11;;;;;;;20.48;8.70;;;-1.00;99.90;;;;;;4965748;28;20038;-85
2021/12/22 04:16:37;;;;;;;23.20;9.27;;;-0.90;99.90;;;;;;4963469;29;20059;-85
2021/12/22 04:19:04;;;;;;;14.52;8.13;;;-0.90;99.90;;;;;;4963069;28;20027;-83
2021/12/22 04:21:30;;;;;;;16.48;8.40;;;-1.00;99.90;;;;;;4962809;29;20026;-85
2021/12/22 04:23:56;;;;;;;26.98;9.35;;;-0.90;99.90;;;;;;4946231;29;20035;-85
2021/12/22 04:26:23;;;;;;;21.92;9.18;;;-0.90;99.90;;;;;;4964124;28;20051;-84
2021/12/22 04:28:49;;;;;;;16.88;8.50;;;-0.90;99.90;;;;;;4963483;29;20391;-84
2021/12/22 04:31:15;;;;;;;25.85;9.60;;;-0.90;99.90;;;;;;4963488;28;20023;-83
2021/12/22 04:33:41;;;;;;;24.40;9.48;;;-0.90;99.90;;;;;;4972345;28;20388;-86
2021/12/22 04:36:08;;;;;;;16.73;8.45;;;-0.90;99.90;;;;;;4963705;29;20034;-84
2021/12/22 04:38:33;;;;;;;27.45;8.65;;;-0.90;99.90;;;;;;4967822;28;20047;-80
2021/12/22 04:40:59;;;;;;;19.80;8.93;;;-0.80;99.90;;;;;;4980134;28;20095;-81
2021/12/22 04:43:25;;;;;;;21.30;9.13;;;-0.90;99.90;;;;;;4980002;28;20026;-81
2021/12/22 04:45:51;;;;;;;19.88;8.55;;;-0.80;99.90;;;;;;4967706;28;20440;-85
2021/12/22 04:48:17;;;;;;;21.85;8.60;;;-0.80;99.90;;;;;;4976997;28;20031;-82
2021/12/22 04:50:43;;;;;;;22.58;8.80;;;-0.70;99.90;;;;;;4979619;28;20051;-83
2021/12/22 04:55:34;;;;;;;24.73;10.20;;;-0.80;99.90;;;;;;4969022;29;20483;-83
2021/12/22 04:58:00;;;;;;;20.67;8.85;;;-0.80;99.90;;;;;;4976593;29;20026;-81
2021/12/22 05:00:29;;;;;;;25.65;10.35;;;-0.80;99.90;;;;;;4977402;28;20023;-82
2021/12/22 05:02:56;;;;;;;20.38;9.50;;;-0.80;99.90;;;;;;4976838;29;20027;-84
2021/12/22 05:05:22;;;;;;;22.55;9.50;;;-0.80;99.90;;;;;;4977044;28;20124;-82
2021/12/22 05:07:48;;;;;;;24.65;9.73;;;-0.90;99.90;;;;;;4977293;28;20406;-82
2021/12/22 05:10:15;;;;;;;25.50;9.65;;;-0.90;99.90;;;;;;4976533;29;20028;-84
2021/12/22 05:12:42;;;;;;;22.40;9.90;;;-0.90;99.90;;;;;;4977858;28;20011;-83
2021/12/22 05:15:09;;;;;;;25.17;10.60;;;-0.90;99.90;;;;;;4978468;28;20099;-82
2021/12/22 05:20:12;;;;;;;19.48;9.43;;;-0.90;99.90;;;;;;4976626;28;20058;-83
2021/12/22 05:22:38;;;;;;;19.95;9.25;;;-0.90;99.90;;;;;;4973932;28;20038;-84
2021/12/22 05:25:07;;;;;;;21.02;9.63;;;-0.90;99.90;;;;;;4973041;28;20031;-85
2021/12/22 05:27:33;;;;;;;22.42;9.13;;;-0.90;99.90;;;;;;4973092;28;20020;-83
2021/12/22 05:29:59;;;;;;;22.83;9.45;;;-0.90;99.90;;;;;;4972204;28;20038;-84
2021/12/22 05:32:31;;;;;;;31.85;9.93;;;-0.90;99.90;;;;;;4970072;29;20051;-85
2021/12/22 05:34:57;;;;;;;24.85;10.38;;;-0.90;99.90;;;;;;4966203;28;20106;-86
2021/12/22 05:37:24;;;;;;;26.90;9.63;;;-0.90;99.90;;;;;;4964924;28;20055;-82
2021/12/22 05:39:49;;;;;;;21.40;9.68;;;-0.90;99.90;;;;;;4972992;28;20075;-83
2021/12/22 05:42:15;;;;;;;25.45;9.88;;;-0.90;99.90;;;;;;4977980;28;20038;-82
2021/12/22 05:44:42;;;;;;;24.40;10.05;;;-0.90;99.90;;;;;;4977888;28;20023;-82
2021/12/22 05:47:08;;;;;;;24.23;10.55;;;-0.90;99.90;;;;;;4973895;28;20414;-85
2021/12/22 05:49:35;;;;;;;24.42;9.63;;;-0.90;99.90;;;;;;4971886;29;20067;-84
2021/12/22 05:52:00;;;;;;;24.75;11.88;;;-0.90;99.90;;;;;;4976927;28;20022;-84
2021/12/22 05:54:26;;;;;;;27.75;10.38;;;-0.90;99.90;;;;;;4975278;28;20035;-83
2021/12/22 05:56:52;;;;;;;24.60;10.63;;;-0.90;99.90;;;;;;4975785;28;20028;-81
2021/12/22 05:59:18;;;;;;;22.63;11.23;;;-0.90;99.90;;;;;;4976405;29;20019;-81
2021/12/22 06:01:43;;;;;;;26.40;10.32;;;-0.90;99.90;;;;;;4977320;29;20019;-81
2021/12/22 06:04:09;;;;;;;25.08;11.43;;;-0.90;99.90;;;;;;4977201;28;20210;-80
2021/12/22 06:06:35;;;;;;;25.30;11.40;;;-0.90;99.90;;;;;;4977340;28;20115;-82
2021/12/22 06:09:01;;;;;;;33.78;10.82;;;-0.90;99.90;;;;;;4974343;28;20049;-83
2021/12/22 06:11:26;;;;;;;27.77;11.07;;;-0.80;99.90;;;;;;4970901;29;20053;-83
2021/12/22 06:13:55;;;;;;;29.40;11.20;;;-0.80;99.90;;;;;;4968113;28;20031;-85
2021/12/22 06:16:21;;;;;;;29.25;10.63;;;-0.90;99.90;;;;;;4968038;28;20023;-85
2021/12/22 06:18:54;;;;;;;28.77;11.65;;;-0.90;99.90;;;;;;4968481;29;20612;-84
2021/12/22 06:21:20;;;;;;;32.47;11.30;;;-0.80;99.90;;;;;;4971896;28;20027;-82
2021/12/22 06:23:46;;;;;;;31.83;12.88;;;-0.90;99.90;;;;;;4975022;28;20070;-82
2021/12/22 06:26:12;;;;;;;28.63;11.15;;;-0.90;99.90;;;;;;4976939;28;20140;-83
2021/12/22 06:28:38;;;;;;;34.28;12.23;;;-0.90;99.90;;;;;;4975135;28;20034;-83
2021/12/22 06:31:04;;;;;;;24.65;10.77;;;-0.90;99.90;;;;;;4970857;28;20027;-84
2021/12/22 06:33:30;;;;;;;31.63;12.18;;;-0.80;99.90;;;;;;4970389;28;20011;-82
2021/12/22 06:35:56;;;;;;;31.48;11.65;;;-0.80;99.90;;;;;;4976060;28;20038;-83
2021/12/22 06:38:22;;;;;;;27.45;12.05;;;-0.80;99.90;;;;;;4976447;29;20015;-83
2021/12/22 06:40:49;;;;;;;27.73;11.50;;;-0.80;99.90;;;;;;4976285;29;20094;-84
2021/12/22 06:43:15;;;;;;;23.42;11.05;;;-0.80;99.90;;;;;;4975851;28;20015;-83
2021/12/22 06:45:41;;;;;;;28.83;11.80;;;-0.70;99.90;;;;;;4973321;29;20067;-86
2021/12/22 06:48:07;;;;;;;29.58;12.60;;;-0.70;99.90;;;;;;4977514;28;20023;-83
2021/12/22 06:50:33;;;;;;;29.25;12.25;;;-0.70;99.90;;;;;;4981060;28;20042;-83
2021/12/22 06:52:59;;;;;;;28.70;12.82;;;-0.70;99.90;;;;;;4981985;28;20019;-81
2021/12/22 06:55:25;;;;;;;29.60;13.15;;;-0.70;99.90;;;;;;4980706;28;20042;-83
2021/12/22 06:57:51;;;;;;;33.35;12.82;;;-0.70;99.90;;;;;;4980713;28;20128;-83
2021/12/22 07:00:17;;;;;;;29.05;12.60;;;-0.70;99.90;;;;;;4978981;28;20031;-83
2021/12/22 07:02:43;;;;;;;32.10;13.30;;;-0.60;99.90;;;;;;4968918;29;20027;-85
2021/12/22 07:05:19;;;;;;;30.60;13.00;;;-0.60;99.90;;;;;;4964785;28;20035;-84
2021/12/22 07:07:45;;;;;;;31.50;12.73;;;-0.60;99.90;;;;;;4967392;29;20034;-85
2021/12/22 07:10:11;;;;;;;34.28;12.77;;;-0.60;99.90;;;;;;4969810;29;20026;-83
2021/12/22 07:12:40;;;;;;;28.20;12.60;;;-0.50;99.90;;;;;;4967000;29;20038;-84
2021/12/22 07:15:10;;;;;;;31.00;12.77;;;-0.50;99.90;;;;;;4969798;28;20023;-84
2021/12/22 07:17:37;;;;;;;29.08;13.10;;;-0.50;99.90;;;;;;4967219;28;20031;-85
2021/12/22 07:20:05;;;;;;;36.95;13.40;;;-0.40;99.90;;;;;;4966639;28;20027;-85
2021/12/22 07:22:32;;;;;;;37.00;14.25;;;-0.40;99.90;;;;;;4977330;28;20023;-82
2021/12/22 07:24:58;;;;;;;29.70;12.77;;;-0.40;99.90;;;;;;4981174;28;20051;-79
2021/12/22 07:27:24;;;;;;;31.52;13.18;;;-0.30;99.90;;;;;;4981253;28;20031;-82
2021/12/22 07:29:50;;;;;;;32.17;12.27;;;-0.30;99.90;;;;;;4980902;28;20019;-82
2021/12/22 07:32:15;;;;;;;29.92;13.20;;;-0.30;99.90;;;;;;4981545;28;20027;-81
2021/12/22 07:35:07;;;;;;;35.85;13.50;;;-0.20;99.90;;;;;;4981425;28;20016;-80
2021/12/22 07:37:45;;;;;;;29.33;12.63;;;-0.20;99.90;;;;;;4978124;28;20034;-81
2021/12/22 07:40:14;;;;;;;26.35;12.55;;;-0.20;99.90;;;;;;4981127;28;20038;-80
2021/12/22 07:42:40;;;;;;;35.42;13.00;;;-0.20;99.90;;;;;;4981060;28;20023;-81
2021/12/22 07:45:08;;;;;;;28.73;13.00;;;-0.20;99.90;;;;;;4981180;28;20031;-81
2021/12/22 07:47:33;;;;;;;29.65;12.43;;;-0.20;99.90;;;;;;4980996;28;20058;-82
2021/12/22 07:49:59;;;;;;;36.05;14.48;;;-0.20;99.90;;;;;;4980862;28;20012;-82
2021/12/22 07:52:27;;;;;;;39.78;13.20;;;-0.20;99.90;;;;;;4980679;28;20166;-82
2021/12/22 07:54:56;;;;;;;32.33;12.77;;;-0.10;99.90;;;;;;5016426;23;20049;-87
2021/12/22 07:57:22;;;;;;;31.15;12.95;;;-0.10;99.90;;;;;;5014416;28;20065;-86
2021/12/22 07:59:49;;;;;;;26.10;13.70;;;0.00;99.90;;;;;;5015340;28;20030;-86
2021/12/22 08:02:14;;;;;;;34.35;13.55;;;0.00;99.90;;;;;;5015814;28;20077;-86
2021/12/22 08:04:40;;;;;;;28.52;12.77;;;0.10;99.90;;;;;;5011271;28;20191;-87
2021/12/22 08:07:08;;;;;;;28.20;12.18;;;0.20;99.90;;;;;;4995778;28;20026;-88
2021/12/22 08:09:34;;;;;;;33.80;13.07;;;0.30;99.90;;;;;;5011075;28;20030;-87
2021/12/22 08:12:04;;;;;;;24.98;12.02;;;0.40;99.90;;;;;;5013536;28;20046;-87
2021/12/22 08:14:34;;;;;;;31.42;13.20;;;0.50;99.90;;;;;;5012634;28;20062;-88
2021/12/22 08:17:00;;;;;;;28.50;13.20;;;0.70;99.90;;;;;;4992391;28;20054;-87
2021/12/22 08:19:26;;;;;;;29.83;12.77;;;0.90;99.90;;;;;;5017530;28;20030;-86
2021/12/22 08:21:53;;;;;;;26.90;11.68;;;1.40;99.90;;;;;;5008294;28;20030;-89
2021/12/22 08:24:19;;;;;;;30.08;12.02;;;2.00;99.90;;;;;;5006054;28;20022;-88
2021/12/22 08:26:45;;;;;;;27.80;11.48;;;2.60;99.90;;;;;;5004855;28;20050;-86
2021/12/22 08:29:11;;;;;;;17.83;9.43;;;3.30;99.90;;;;;;5005395;28;20027;-86
2021/12/22 08:31:37;;;;;;;28.95;12.38;;;4.10;99.90;;;;;;5006501;28;20041;-87
2021/12/22 08:34:04;;;;;;;32.83;12.63;;;4.70;99.90;;;;;;4988052;28;20585;-87
2021/12/22 08:39:16;;;;;;;;;;;5.80;99.90;;;;;;5006646;28;20057;-88
2021/12/22 08:41:47;;;;;;;22.88;11.02;;;6.50;99.90;;;;;;5003913;28;19925;-87
2021/12/22 08:44:16;;;;;;;27.95;11.90;;;7.00;99.60;;;;;;5008937;28;20135;-87
2021/12/22 08:46:46;;;;;;;25.27;12.23;;;7.80;98.10;;;;;;4994799;28;20118;-89
2021/12/22 08:49:13;;;;;;;23.70;12.15;;;8.30;96.40;;;;;;5011648;28;20514;-87
2021/12/22 08:51:38;;;;;;;23.67;11.70;;;8.90;95.10;;;;;;5009864;28;20034;-87
2021/12/22 08:54:04;;;;;;;24.38;12.40;;;9.40;93.90;;;;;;5007991;28;20111;-87
2021/12/22 08:56:31;;;;;;;25.85;11.93;;;9.70;93.00;;;;;;5008322;28;20034;-88
2021/12/22 08:58:57;;;;;;;22.05;11.10;;;9.90;92.00;;;;;;5016453;28;20494;-88
2021/12/22 09:01:25;;;;;;;28.67;12.60;;;10.10;91.50;;;;;;5007421;28;20041;-88
2021/12/22 09:03:51;;;;;;;26.85;11.98;;;10.30;90.60;;;;;;5006466;28;20022;-88
2021/12/22 09:06:17;;;;;;;23.85;12.40;;;10.10;90.00;;;;;;5008059;28;20426;-86
2021/12/22 09:08:45;;;;;;;22.85;11.32;;;9.30;90.80;;;;;;5009078;28;20033;-89
2021/12/22 09:11:12;;;;;;;25.75;12.20;;;8.50;91.60;;;;;;4994375;28;20027;-90
2021/12/22 09:13:39;;;;;;;25.58;12.52;;;8.20;92.00;;;;;;5009278;28;20601;-87
2021/12/22 09:16:07;;;;;;;23.02;11.75;;;8.20;92.10;;;;;;5010202;28;20022;-88
2021/12/22 09:18:35;;;;;;;22.75;11.38;;;8.60;91.80;;;;;;5008834;28;20038;-87
2021/12/22 09:21:01;;;;;;;28.45;11.80;;;9.00;91.50;;;;;;5009723;28;20033;-88
2021/12/22 09:23:26;;;;;;;26.27;13.00;;;9.10;90.80;;;;;;5009909;28;20553;-87
2021/12/22 09:25:52;;;;;;;24.52;12.45;;;9.20;90.80;;;;;;5008474;28;20081;-87
2021/12/22 09:28:18;;;;;;;24.80;12.23;;;10.00;89.80;;;;;;5008521;28;20052;-86
2021/12/22 09:30:46;;;;;;;25.83;13.05;;;10.00;88.80;;;;;;5010220;28;20026;-87
2021/12/22 09:33:14;;;;;;;23.98;12.48;;;9.00;90.00;;;;;;5012023;28;20046;-87
2021/12/22 09:35:43;;;;;;;27.52;12.77;;;8.10;91.10;;;;;;5010699;28;20185;-87
2021/12/22 09:38:09;;;;;;;26.98;13.55;;;6.90;92.40;;;;;;5013840;28;20522;-87
2021/12/22 09:40:36;;;;;;;33.47;14.70;;;6.10;93.70;;;;;;4994127;28;20030;-87
2021/12/22 09:43:05;;;;;;;33.65;14.38;;;5.40;95.00;;;;;;5005322;28;20206;-88
2021/12/22 09:45:37;;;;;;;27.25;13.13;;;4.80;96.40;;;;;;4990322;28;20033;-87
2021/12/22 09:53:30;;;;;;;28.67;13.05;;;4.20;99.10;;;;;;5008657;28;20034;-87
2021/12/22 09:55:58;;;;;;;30.55;13.70;;;4.20;99.50;;;;;;5007458;28;20498;-86
2021/12/22 09:58:25;;;;;;;33.00;14.65;;;4.20;99.80;;;;;;5008563;28;20419;-86
2021/12/22 10:00:51;;;;;;;32.28;14.35;;;4.20;99.90;;;;;;5009049;28;20015;-87
2021/12/22 10:03:18;;;;;;;33.17;14.45;;;3.90;99.90;;;;;;5006743;28;20060;-88
2021/12/22 10:05:46;;;;;;;31.38;13.32;;;3.80;99.90;;;;;;5006765;28;20037;-87
2021/12/22 10:08:17;;;;;;;34.50;14.55;;;3.90;99.90;;;;;;4990713;28;20031;-88
2021/12/22 10:10:59;;;;;;;28.23;13.75;;;3.80;99.90;;;;;;5006696;28;20034;-86
2021/12/22 10:13:28;;;;;;;31.40;13.95;;;3.60;99.90;;;;;;5010383;28;20030;-87
2021/12/22 10:15:56;;;;;;;33.30;13.70;;;3.30;99.90;;;;;;4993722;28;20074;-88
2021/12/22 10:18:28;;;;;;;25.05;12.68;;;3.20;99.90;;;;;;5013548;28;20041;-88
2021/12/22 10:21:23;;;;;;;27.15;13.60;;;3.20;99.90;;;;;;4994325;28;20042;-87
2021/12/22 10:23:52;;;;;;;34.78;12.93;;;3.20;99.90;;;;;;5012563;28;20068;-85
2021/12/22 10:26:26;;;;;;;38.40;15.10;;;3.40;99.90;;;;;;5014020;28;20043;-88
2021/12/22 10:28:59;;;;;;;31.92;14.25;;;3.90;99.90;;;;;;5012573;28;20094;-88
2021/12/22 10:31:36;;;;;;;28.20;13.40;;;5.10;99.90;;;;;;5014195;28;20033;-87
2021/12/22 10:34:08;;;;;;;36.53;15.10;;;6.90;98.40;;;;;;5014033;28;20034;-87
2021/12/22 10:36:50;;;;;;;27.92;14.15;;;8.30;95.80;;;;;;5014377;28;20053;-86
2021/12/22 10:39:21;;;;;;;32.85;14.05;;;9.70;92.90;;;;;;5012721;28;20038;-87
2021/12/22 10:41:48;;;;;;;27.27;13.45;;;10.90;91.00;;;;;;5014532;28;20038;-89
2021/12/22 10:44:13;;;;;;;28.48;13.82;;;11.60;87.80;;;;;;5019346;28;20037;-86
2021/12/22 10:46:39;;;;;;;30.25;14.27;;;12.20;85.50;;;;;;4999809;28;20074;-86
2021/12/22 10:49:22;;;;;;;30.13;14.70;;;12.60;83.10;;;;;;5014609;28;20081;-86
2021/12/22 10:51:59;;;;;;;27.33;15.80;;;13.00;81.00;;;;;;5015666;28;20042;-87
2021/12/22 10:54:35;;;;;;;25.67;15.02;;;12.80;80.10;;;;;;5015439;28;20068;-87
2021/12/22 10:57:03;;;;;;;26.75;14.82;;;13.40;79.40;;;;;;5018933;28;20053;-86
2021/12/22 10:59:45;;;;;;;26.98;15.45;;;13.30;77.80;;;;;;5019168;28;20030;-86
2021/12/22 11:02:18;;;;;;;27.52;15.15;;;13.00;77.70;;;;;;5014170;28;20482;-88
2021/12/22 11:04:45;;;;;;;24.65;15.18;;;12.80;78.10;;;;;;4999564;28;20094;-86
2021/12/22 11:07:20;;;;;;;25.33;14.90;;;13.40;77.00;;;;;;5019055;28;20031;-87
2021/12/22 11:09:46;;;;;;;30.73;14.60;;;13.90;75.90;;;;;;5018207;28;20039;-87
2021/12/22 11:12:14;;;;;;;28.30;16.00;;;14.60;74.20;;;;;;5002634;28;20021;-87
2021/12/22 11:14:42;;;;;;;26.83;15.23;;;14.50;73.20;;;;;;5020409;28;20065;-86
2021/12/22 11:17:15;;;;;;;24.42;14.90;;;14.00;74.10;;;;;;5018966;28;20030;-87
2021/12/22 11:19:50;;;;;;;27.75;15.35;;;13.80;73.80;;;;;;5018321;28;20442;-87
2021/12/22 11:22:18;;;;;;;25.48;15.52;;;14.10;72.90;;;;;;5015865;28;20022;-86
2021/12/22 11:24:53;;;;;;;30.90;16.30;;;13.20;73.50;;;;;;5017877;28;20077;-88
2021/12/22 11:27:26;;;;;;;28.02;15.38;;;12.10;75.70;;;;;;5015908;28;20042;-85
2021/12/22 11:29:55;;;;;;;31.33;16.05;;;10.90;78.80;;;;;;5015719;28;20046;-85
2021/12/22 11:32:22;;;;;;;26.73;15.23;;;10.70;79.60;;;;;;5016330;28;20026;-86
2021/12/22 11:34:51;;;;;;;28.75;16.10;;;9.90;80.90;;;;;;5015265;28;20057;-83
2021/12/22 11:37:18;;;;;;;29.63;15.90;;;8.80;83.40;;;;;;5018858;28;20054;-84
2021/12/22 11:39:45;;;;;;;34.42;15.45;;;8.20;85.70;;;;;;5018464;28;20041;-85
2021/12/22 11:42:14;;;;;;;35.70;15.98;;;7.60;87.70;;;;;;5018268;28;20046;-84
2021/12/22 11:44:45;;;;;;;30.63;15.25;;;6.90;90.10;;;;;;5019279;28;20038;-84
2021/12/22 11:47:13;;;;;;;32.42;15.43;;;6.40;91.00;;;;;;5019603;28;20041;-82
2021/12/22 11:50:01;;;;;;;26.90;14.55;;;6.10;92.00;;;;;;5019628;28;20073;-82
2021/12/22 11:52:43;;;;;;;34.13;15.70;;;5.80;93.30;;;;;;5019347;28;20018;-82
2021/12/22 11:55:15;;;;;;;34.72;16.45;;;5.50;94.60;;;;;;5019440;28;20026;-85
2021/12/22 11:57:43;;;;;;;30.90;14.82;;;5.20;95.30;;;;;;5018204;28;20034;-83
2021/12/22 12:00:29;;;;;;;35.95;16.92;;;4.80;96.40;;;;;;5016077;28;20018;-86
2021/12/22 12:02:58;;;;;;;32.95;16.48;;;4.60;97.70;;;;;;5015280;28;20018;-84
2021/12/22 12:05:25;;;;;;;34.83;15.50;;;4.40;98.60;;;;;;5015744;28;20019;-87
2021/12/22 12:08:02;;;;;;;38.05;15.15;;;4.40;99.40;;;;;;5016261;28;20038;-83
2021/12/22 12:10:35;;;;;;;34.83;15.48;;;4.20;99.90;;;;;;5015606;28;20053;-86
2021/12/22 12:13:10;;;;;;;40.22;16.15;;;4.20;99.90;;;;;;5015397;28;20022;-86
2021/12/22 12:22:05;;;;;;;38.88;15.80;;;3.80;99.90;;;;;;5014799;28;20049;-84
2021/12/22 12:24:30;;;;;;;34.20;15.73;;;3.80;99.90;;;;;;5013375;28;20030;-83
2021/12/22 12:26:58;;;;;;;31.30;15.30;;;3.90;99.90;;;;;;5014303;28;20034;-85
2021/12/22 12:30:01;;;;;;;35.78;16.65;;;3.80;99.90;;;;;;5014437;28;20102;-85
2021/12/22 12:32:39;;;;;;;36.10;16.45;;;3.70;99.90;;;;;;5012793;28;20026;-85
2021/12/22 12:35:18;;;;;;;35.25;16.35;;;3.50;99.90;;;;;;5014650;28;20033;-84
2021/12/22 12:38:02;;;;;;;32.30;15.77;;;3.30;99.90;;;;;;5010547;28;20038;-83
2021/12/22 12:41:10;;;;;;;41.13;16.83;;;3.30;99.90;;;;;;5012051;28;20042;-85
2021/12/22 12:46:24;;;;;;;36.78;17.55;;;3.10;99.90;;;;;;5009116;28;20045;-85
2021/12/22 12:49:03;;;;;;;39.10;17.42;;;3.10;99.90;;;;;;5012896;28;20098;-84
2021/12/22 12:51:44;;;;;;;33.75;16.73;;;3.10;99.90;;;;;;5012276;28;20086;-85
2021/12/22 12:54:16;;;;;;;38.42;16.85;;;3.10;99.90;;;;;;5013031;28;20034;-84
2021/12/22 12:56:49;;;;;;;38.78;17.02;;;3.20;99.90;;;;;;5014037;28;20029;-85
2021/12/22 12:59:18;;;;;;;40.05;18.63;;;3.10;99.90;;;;;;5017036;28;20045;-87
2021/12/22 13:01:46;;;;;;;43.70;17.88;;;3.20;99.90;;;;;;5014831;28;20109;-85
2021/12/22 13:04:45;;;;;;;44.35;19.08;;;3.10;99.90;;;;;;5014482;28;20049;-88
2021/12/22 13:07:15;;;;;;;39.88;17.90;;;3.10;99.90;;;;;;5013971;28;20046;-85
2021/12/22 13:09:55;;;;;;;47.45;18.30;;;3.10;99.90;;;;;;5013584;28;20038;-84
2021/12/22 13:17:50;;;;;;;45.95;19.38;;;2.90;99.90;;;;;;5015979;28;20037;-84
2021/12/22 13:20:19;;;;;;;40.25;18.65;;;2.80;99.90;;;;;;5012255;28;20038;-86
2021/12/22 13:22:47;;;;;;;47.40;19.33;;;2.80;99.90;;;;;;5008043;28;20077;-87